createdAt,value
2022-12-06T00:05:28.000Z,37.50
2022-12-06T00:15:28.000Z,33.30
2022-12-06T00:25:28.000Z,33.40
2022-12-06T00:35:28.000Z,33.00
2022-12-06T00:45:28.000Z,37.20
2022-12-06T00:55:28.000Z,28.90
2022-12-06T01:05:28.000Z,31.80
2022-12-06T01:15:27.000Z,35.00
2022-12-06T01:25:27.000Z,31.60
2022-12-06T01:35:27.000Z,32.80
2022-12-06T01:45:27.000Z,28.50
2022-12-06T01:55:27.000Z,34.30
2022-12-06T01:55:27.000Z,34.30
2022-12-06T02:05:27.000Z,38.40
2022-12-06T02:15:27.000Z,36.90
2022-12-06T02:15:27.000Z,36.90
2022-12-06T02:25:27.000Z,33.50
2022-12-06T02:35:27.000Z,33.40
2022-12-06T02:45:27.000Z,31.10
2022-12-06T02:55:27.000Z,32.90
2022-12-06T03:05:26.000Z,32.40
2022-12-06T03:15:26.000Z,30.50
2022-12-06T03:25:26.000Z,35.40
2022-12-06T03:35:26.000Z,29.70
2022-12-06T03:45:26.000Z,30.70
2022-12-06T03:55:26.000Z,29.00
2022-12-06T04:05:26.000Z,27.10
2022-12-06T04:15:26.000Z,32.50
2022-12-06T04:25:26.000Z,32.30
2022-12-06T04:35:26.000Z,28.50
2022-12-06T04:45:26.000Z,32.80
2022-12-06T04:55:25.000Z,29.30
2022-12-06T05:05:25.000Z,30.30
2022-12-06T05:15:25.000Z,28.50
2022-12-06T05:25:25.000Z,34.50
2022-12-06T05:35:25.000Z,34.70
2022-12-06T05:45:25.000Z,34.50
2022-12-06T05:55:25.000Z,35.50
2022-12-06T06:05:25.000Z,36.10
2022-12-06T06:15:25.000Z,39.30
2022-12-06T06:25:25.000Z,45.50
2022-12-06T06:35:24.000Z,49.30
2022-12-06T06:45:24.000Z,43.50
2022-12-06T06:55:24.000Z,44.40
2022-12-06T07:05:24.000Z,43.80
2022-12-06T07:15:24.000Z,42.90
2022-12-06T07:25:24.000Z,43.40
2022-12-06T07:25:24.000Z,43.40
2022-12-06T07:25:24.000Z,43.40
2022-12-06T07:35:24.000Z,36.70
2022-12-06T07:45:24.000Z,34.50
2022-12-06T07:55:24.000Z,31.60
2022-12-06T08:05:24.000Z,32.50
2022-12-06T08:15:24.000Z,33.10
2022-12-06T08:25:23.000Z,25.80
2022-12-06T08:35:23.000Z,25.00
2022-12-06T08:45:23.000Z,26.30
2022-12-06T08:55:23.000Z,24.10
2022-12-06T09:05:23.000Z,25.40
2022-12-06T09:15:23.000Z,22.10
2022-12-06T09:25:23.000Z,17.70
2022-12-06T09:35:23.000Z,20.60
2022-12-06T09:45:23.000Z,18.70
2022-12-06T09:55:23.000Z,18.70
2022-12-06T10:05:23.000Z,21.30
2022-12-06T10:15:22.000Z,19.10
2022-12-06T10:25:22.000Z,20.00
2022-12-06T10:35:22.000Z,20.90
2022-12-06T10:45:22.000Z,20.00
2022-12-06T10:55:22.000Z,16.10
2022-12-06T11:05:22.000Z,15.30
2022-12-06T11:15:22.000Z,15.80
2022-12-06T11:25:22.000Z,19.20
2022-12-06T11:35:22.000Z,21.90
2022-12-06T11:45:22.000Z,14.00
2022-12-06T11:55:22.000Z,13.40
2022-12-06T12:05:21.000Z,15.10
2022-12-06T12:15:21.000Z,13.90
2022-12-06T12:25:21.000Z,11.90
2022-12-06T12:35:21.000Z,12.60
2022-12-06T12:45:21.000Z,15.30
2022-12-06T12:55:21.000Z,15.30
2022-12-06T13:05:21.000Z,25.30
2022-12-06T13:15:21.000Z,18.70
2022-12-06T13:25:21.000Z,10.40
2022-12-06T13:35:21.000Z,11.50
2022-12-06T13:45:21.000Z,8.10
2022-12-06T13:55:20.000Z,9.20
2022-12-06T14:05:20.000Z,10.50
2022-12-06T14:15:20.000Z,7.90
2022-12-06T14:25:20.000Z,11.50
2022-12-06T14:35:20.000Z,8.30
2022-12-06T14:45:20.000Z,9.80
2022-12-06T14:55:20.000Z,11.00
2022-12-06T15:05:20.000Z,13.10
2022-12-06T15:15:20.000Z,17.50
2022-12-06T15:25:20.000Z,14.20
2022-12-06T15:35:20.000Z,15.90
2022-12-06T15:45:19.000Z,19.00
2022-12-06T15:55:19.000Z,22.00
2022-12-06T16:05:19.000Z,9.70
2022-12-06T16:15:19.000Z,11.80
2022-12-06T16:25:19.000Z,13.30
2022-12-06T16:35:19.000Z,11.90
2022-12-06T16:45:19.000Z,11.80
2022-12-06T16:55:19.000Z,9.50
2022-12-06T17:05:19.000Z,11.10
2022-12-06T17:15:19.000Z,13.50
2022-12-06T17:25:18.000Z,18.80
2022-12-06T17:35:18.000Z,17.10
2022-12-06T17:45:18.000Z,24.00
2022-12-06T17:55:18.000Z,29.90
2022-12-06T18:05:18.000Z,29.00
2022-12-06T18:15:18.000Z,29.60
2022-12-06T18:25:18.000Z,29.30
2022-12-06T18:35:18.000Z,27.20
2022-12-06T18:45:18.000Z,41.70
2022-12-06T18:55:18.000Z,46.80
2022-12-06T18:55:18.000Z,46.80
2022-12-06T19:05:18.000Z,28.90
2022-12-06T19:15:17.000Z,32.90
2022-12-06T19:25:17.000Z,31.10
2022-12-06T19:35:17.000Z,49.20
2022-12-06T19:45:17.000Z,43.30
2022-12-06T19:55:17.000Z,36.40
2022-12-06T20:05:17.000Z,29.00
2022-12-06T20:15:17.000Z,20.10
2022-12-06T20:25:17.000Z,20.30
2022-12-06T20:35:17.000Z,21.50
2022-12-06T20:45:17.000Z,30.00
2022-12-06T20:55:16.000Z,29.20
2022-12-06T21:05:16.000Z,22.10
2022-12-06T21:15:16.000Z,24.20
2022-12-06T21:25:16.000Z,24.60
2022-12-06T21:35:16.000Z,33.50
2022-12-06T21:45:16.000Z,33.70
2022-12-06T21:55:16.000Z,31.70
2022-12-06T22:05:16.000Z,32.40
2022-12-06T22:15:16.000Z,33.70
2022-12-06T22:25:16.000Z,32.80
2022-12-06T22:35:15.000Z,31.70
2022-12-06T22:45:15.000Z,27.80
2022-12-06T22:55:15.000Z,32.50
2022-12-06T23:05:15.000Z,33.70
2022-12-06T23:15:15.000Z,36.40
2022-12-06T23:25:15.000Z,32.00
2022-12-06T23:35:15.000Z,34.80
2022-12-06T23:45:15.000Z,33.30
2022-12-06T23:55:15.000Z,31.90
